createdAt,value
2022-08-19T00:00:54.205Z,4.20
2022-08-19T00:01:54.183Z,5.60
2022-08-19T00:02:54.533Z,7.40
2022-08-19T00:03:54.601Z,6.10
2022-08-19T00:04:54.234Z,6.30
2022-08-19T00:05:54.158Z,5.70
2022-08-19T00:06:54.139Z,6.90
2022-08-19T00:07:54.110Z,8.50
2022-08-19T00:08:54.151Z,5.60
2022-08-19T00:09:54.135Z,5.50
2022-08-19T00:10:54.399Z,3.80
2022-08-19T00:11:54.073Z,5.00
2022-08-19T00:12:54.064Z,5.30
2022-08-19T00:13:54.051Z,4.60
2022-08-19T00:14:54.064Z,5.90
2022-08-19T00:15:54.068Z,6.60
2022-08-19T00:16:54.022Z,8.30
2022-08-19T00:17:54.449Z,7.10
2022-08-19T00:18:54.006Z,5.00
2022-08-19T00:19:54.025Z,5.90
2022-08-19T00:20:54.008Z,6.00
2022-08-19T00:21:54.017Z,8.40
2022-08-19T00:22:54.149Z,6.60
2022-08-19T00:23:54.301Z,5.70
2022-08-19T00:24:53.939Z,9.30
2022-08-19T00:25:53.920Z,5.70
2022-08-19T00:26:53.921Z,5.00
2022-08-19T00:27:53.948Z,6.70
2022-08-19T00:28:53.932Z,5.30
2022-08-19T00:29:53.884Z,6.80
2022-08-19T00:30:53.897Z,7.50
2022-08-19T00:31:53.871Z,10.10
2022-08-19T00:32:54.100Z,5.00
2022-08-19T00:33:53.882Z,6.20
2022-08-19T00:34:53.856Z,6.40
2022-08-19T00:35:55.965Z,7.80
2022-08-19T00:36:53.826Z,8.10
2022-08-19T00:37:53.801Z,10.30
2022-08-19T00:38:53.795Z,8.70
2022-08-19T00:39:53.837Z,7.90
2022-08-19T00:40:53.838Z,12.30
2022-08-19T00:41:53.792Z,7.30
2022-08-19T00:42:54.207Z,7.20
2022-08-19T00:43:53.747Z,8.20
2022-08-19T00:44:53.753Z,8.10
2022-08-19T00:45:53.753Z,9.60
2022-08-19T00:46:57.833Z,10.10
2022-08-19T00:47:53.689Z,10.20
2022-08-19T00:48:53.706Z,9.00
2022-08-19T00:49:54.066Z,8.40
2022-08-19T00:50:53.673Z,9.10
2022-08-19T00:51:53.741Z,9.20
2022-08-19T00:52:53.859Z,9.30
2022-08-19T00:53:53.637Z,6.20
2022-08-19T00:54:53.632Z,8.60
2022-08-19T00:55:53.618Z,8.60
2022-08-19T00:56:55.191Z,6.10
2022-08-19T00:57:53.622Z,7.60
2022-08-19T00:58:53.591Z,6.10
2022-08-19T01:00:02.299Z,8.90
2022-08-19T01:00:53.565Z,9.80
2022-08-19T01:01:53.608Z,8.60
2022-08-19T01:02:53.695Z,7.20
2022-08-19T01:03:57.700Z,8.70
2022-08-19T01:04:53.557Z,11.00
2022-08-19T01:05:53.509Z,7.30
2022-08-19T01:06:53.517Z,8.40
2022-08-19T01:07:53.493Z,8.60
2022-08-19T01:08:53.505Z,8.00
2022-08-19T01:09:53.491Z,6.20
2022-08-19T01:10:53.787Z,9.00
2022-08-19T01:11:53.441Z,8.60
2022-08-19T01:12:53.561Z,7.50
2022-08-19T01:13:53.442Z,10.00
2022-08-19T01:14:53.416Z,8.50
2022-08-19T01:15:53.431Z,8.00
2022-08-19T01:16:53.397Z,8.80
2022-08-19T01:17:53.814Z,9.00
2022-08-19T01:18:53.375Z,8.90
2022-08-19T01:19:53.360Z,10.10
2022-08-19T01:20:53.365Z,7.40
2022-08-19T01:21:53.370Z,9.90
2022-08-19T01:22:53.470Z,9.50
2022-08-19T01:23:53.318Z,12.40
2022-08-19T01:24:53.668Z,6.60
2022-08-19T01:25:53.292Z,8.80
2022-08-19T01:26:53.298Z,8.90
2022-08-19T01:27:53.808Z,9.30
2022-08-19T01:28:53.263Z,10.00
2022-08-19T01:29:53.282Z,10.50
2022-08-19T01:30:53.399Z,7.90
2022-08-19T01:31:53.714Z,10.10
2022-08-19T01:32:53.383Z,12.40
2022-08-19T01:33:53.236Z,9.30
2022-08-19T01:34:53.213Z,8.60
2022-08-19T01:35:53.196Z,8.10
2022-08-19T01:36:53.177Z,9.60
2022-08-19T01:37:53.175Z,9.90
2022-08-19T01:38:53.558Z,10.90
2022-08-19T01:39:53.244Z,7.50
2022-08-19T01:40:53.162Z,8.40
2022-08-19T01:41:53.120Z,9.00
2022-08-19T01:42:53.277Z,8.40
2022-08-19T01:44:16.902Z,10.30
2022-08-19T01:44:53.594Z,7.90
2022-08-19T01:45:53.112Z,10.00
2022-08-19T01:46:53.082Z,9.80
2022-08-19T01:48:02.354Z,7.00
2022-08-19T01:48:53.066Z,10.30
2022-08-19T01:49:53.059Z,10.70
2022-08-19T01:50:53.053Z,9.10
2022-08-19T01:51:53.536Z,11.00
2022-08-19T01:53:02.347Z,8.20
2022-08-19T01:53:53.052Z,8.70
2022-08-19T01:54:52.996Z,7.80
2022-08-19T01:55:52.998Z,7.50
2022-08-19T01:56:52.985Z,10.90
2022-08-19T01:57:53.012Z,11.20
2022-08-19T01:58:53.289Z,9.10
2022-08-19T01:59:52.936Z,10.30
2022-08-19T02:00:52.931Z,8.40
2022-08-19T02:01:53.017Z,7.50
2022-08-19T02:02:53.100Z,8.50
2022-08-19T02:03:52.928Z,7.60
2022-08-19T02:04:52.888Z,8.60
2022-08-19T02:05:53.340Z,7.90
2022-08-19T02:06:52.891Z,8.30
2022-08-19T02:07:52.879Z,7.60
2022-08-19T02:08:52.844Z,8.90
2022-08-19T02:09:52.860Z,7.90
2022-08-19T02:10:52.816Z,9.90
2022-08-19T02:11:52.817Z,8.00
2022-08-19T02:12:53.327Z,8.10
2022-08-19T02:13:52.783Z,11.00
2022-08-19T02:14:52.776Z,10.00
2022-08-19T02:15:52.816Z,8.60
2022-08-19T02:16:52.766Z,8.80
2022-08-19T02:17:52.753Z,7.50
2022-08-19T02:18:52.742Z,10.70
2022-08-19T02:19:53.222Z,9.10
2022-08-19T02:20:52.716Z,9.40
2022-08-19T02:21:52.729Z,9.90
2022-08-19T02:22:52.884Z,7.70
2022-08-19T02:23:52.695Z,7.60
2022-08-19T02:24:52.683Z,11.60
2022-08-19T02:25:52.746Z,8.10
2022-08-19T02:26:53.062Z,9.40
2022-08-19T02:27:52.678Z,8.30
2022-08-19T02:28:52.641Z,11.30
2022-08-19T02:29:52.650Z,11.70
2022-08-19T02:30:52.616Z,6.50
2022-08-19T02:31:52.597Z,8.80
2022-08-19T02:32:52.587Z,8.90
2022-08-19T02:33:52.959Z,10.00
2022-08-19T02:34:52.578Z,6.10
2022-08-19T02:35:52.565Z,8.60
2022-08-19T02:36:52.552Z,6.50
2022-08-19T02:37:52.535Z,8.50
2022-08-19T02:38:55.178Z,8.20
2022-08-19T02:39:52.620Z,8.00
2022-08-19T02:40:52.969Z,7.80
2022-08-19T02:41:52.501Z,9.20
2022-08-19T02:42:52.673Z,7.60
2022-08-19T02:44:28.911Z,8.80
2022-08-19T02:44:52.473Z,8.20
2022-08-19T02:45:52.493Z,7.60
2022-08-19T02:46:52.542Z,7.50
2022-08-19T02:47:52.805Z,10.00
2022-08-19T02:48:52.429Z,10.60
2022-08-19T02:49:52.421Z,10.40
2022-08-19T02:50:53.637Z,9.40
2022-08-19T02:51:52.433Z,8.00
2022-08-19T02:52:52.653Z,7.80
2022-08-19T02:53:52.376Z,7.00
2022-08-19T02:54:52.838Z,8.60
2022-08-19T02:55:52.359Z,8.60
2022-08-19T02:56:52.345Z,12.10
2022-08-19T02:57:52.357Z,7.90
2022-08-19T02:58:52.332Z,12.80
2022-08-19T02:59:52.303Z,9.90
2022-08-19T03:00:52.392Z,7.30
2022-08-19T03:01:52.751Z,11.10
2022-08-19T03:02:52.538Z,9.40
2022-08-19T03:03:52.579Z,11.00
2022-08-19T03:04:52.255Z,6.90
2022-08-19T03:05:56.439Z,12.00
2022-08-19T03:06:52.249Z,10.10
2022-08-19T03:07:52.217Z,9.00
2022-08-19T03:08:52.531Z,10.10
2022-08-19T03:09:52.247Z,11.20
2022-08-19T03:10:52.192Z,10.40
2022-08-19T03:11:52.628Z,8.50
2022-08-19T03:12:52.412Z,14.10
2022-08-19T03:13:52.164Z,8.80
2022-08-19T03:14:52.143Z,8.20
2022-08-19T03:15:52.473Z,9.20
2022-08-19T03:16:52.131Z,11.90
2022-08-19T03:17:52.133Z,9.20
2022-08-19T03:18:52.104Z,9.70
2022-08-19T03:19:52.098Z,10.00
2022-08-19T03:20:52.085Z,8.90
2022-08-19T03:21:52.114Z,9.30
2022-08-19T03:22:52.575Z,8.00
2022-08-19T03:23:52.056Z,11.00
2022-08-19T03:24:52.041Z,9.90
2022-08-19T03:25:58.177Z,15.20
2022-08-19T03:26:52.027Z,10.70
2022-08-19T03:27:52.085Z,11.40
2022-08-19T03:28:58.138Z,10.70
2022-08-19T03:29:52.066Z,12.70
2022-08-19T03:30:52.031Z,10.70
2022-08-19T03:31:52.830Z,11.90
2022-08-19T03:32:57.097Z,12.80
2022-08-19T03:33:51.992Z,10.30
2022-08-19T03:34:51.944Z,10.20
2022-08-19T03:35:52.301Z,16.00
2022-08-19T03:36:51.920Z,19.40
2022-08-19T03:37:51.919Z,8.20
2022-08-19T03:38:56.433Z,12.00
2022-08-19T03:39:51.982Z,9.90
2022-08-19T03:40:51.914Z,10.60
2022-08-19T03:42:32.284Z,12.10
2022-08-19T03:42:51.861Z,7.80
2022-08-19T03:43:51.854Z,15.60
2022-08-19T03:44:51.837Z,10.60
2022-08-19T03:45:51.878Z,9.90
2022-08-19T03:46:51.861Z,9.70
2022-08-19T03:47:51.814Z,9.00
2022-08-19T03:48:52.188Z,9.60
2022-08-19T03:49:51.785Z,9.10
2022-08-19T03:50:51.783Z,11.30
2022-08-19T03:51:51.796Z,10.90
2022-08-19T03:52:51.965Z,9.40
2022-08-19T03:53:51.756Z,11.60
2022-08-19T03:54:51.727Z,10.40
2022-08-19T03:55:51.737Z,10.40
2022-08-19T03:56:51.702Z,8.60
2022-08-19T03:57:52.836Z,11.90
2022-08-19T03:58:51.694Z,11.90
2022-08-19T03:59:51.676Z,13.40
2022-08-19T04:00:52.106Z,9.90
2022-08-19T04:01:51.662Z,11.70
2022-08-19T04:02:58.011Z,12.50
2022-08-19T04:03:52.240Z,11.90
2022-08-19T04:04:51.618Z,11.60
2022-08-19T04:05:51.622Z,13.30
2022-08-19T04:06:51.607Z,10.30
2022-08-19T04:07:51.593Z,11.90
2022-08-19T04:08:51.586Z,11.30
2022-08-19T04:09:51.594Z,10.10
2022-08-19T04:10:51.552Z,10.70
2022-08-19T04:11:51.595Z,11.60
2022-08-19T04:12:52.157Z,10.10
2022-08-19T04:13:51.555Z,10.20
2022-08-19T04:14:51.522Z,10.50
2022-08-19T04:15:51.562Z,11.30
2022-08-19T04:16:51.492Z,7.20
2022-08-19T04:17:51.493Z,10.50
2022-08-19T04:18:51.477Z,9.70
2022-08-19T04:19:51.779Z,7.20
2022-08-19T04:20:51.445Z,9.20
2022-08-19T04:21:51.509Z,11.30
2022-08-19T04:22:51.511Z,9.90
2022-08-19T04:23:51.424Z,10.60
2022-08-19T04:24:51.426Z,11.80
2022-08-19T04:25:51.402Z,10.00
2022-08-19T04:26:51.848Z,17.20
2022-08-19T04:27:51.423Z,9.80
2022-08-19T04:28:51.395Z,9.50
2022-08-19T04:29:51.353Z,13.80
2022-08-19T04:30:51.345Z,9.30
2022-08-19T04:31:51.366Z,9.70
2022-08-19T04:32:51.326Z,11.10
2022-08-19T04:33:51.804Z,15.90
2022-08-19T04:35:01.589Z,11.60
2022-08-19T04:35:51.309Z,10.90
2022-08-19T04:36:51.278Z,11.40
2022-08-19T04:37:51.323Z,10.20
2022-08-19T04:38:51.266Z,10.10
2022-08-19T04:39:51.331Z,11.50
2022-08-19T04:40:51.238Z,10.00
2022-08-19T04:41:51.232Z,12.20
2022-08-19T04:42:51.211Z,12.20
2022-08-19T04:43:51.225Z,12.30
2022-08-19T04:44:51.200Z,10.90
2022-08-19T04:45:51.225Z,12.00
2022-08-19T04:46:51.988Z,10.90
2022-08-19T04:47:58.166Z,9.00
2022-08-19T04:48:51.188Z,10.00
2022-08-19T04:49:51.157Z,12.30
2022-08-19T04:50:51.153Z,12.20
2022-08-19T04:51:51.178Z,13.40
2022-08-19T04:52:51.647Z,11.30
2022-08-19T04:53:51.109Z,8.90
2022-08-19T04:54:51.101Z,8.40
2022-08-19T04:55:51.088Z,9.70
2022-08-19T04:56:51.071Z,12.90
2022-08-19T04:57:51.140Z,12.80
2022-08-19T04:58:51.052Z,7.40
2022-08-19T04:59:51.058Z,10.10
2022-08-19T05:00:51.097Z,11.90
2022-08-19T05:01:51.049Z,9.80
2022-08-19T05:02:51.013Z,8.60
2022-08-19T05:03:51.034Z,12.00
2022-08-19T05:04:51.370Z,8.90
2022-08-19T05:05:50.979Z,9.50
2022-08-19T05:06:50.969Z,12.70
2022-08-19T05:07:50.973Z,11.90
2022-08-19T05:08:50.984Z,9.20
2022-08-19T05:09:58.390Z,8.10
2022-08-19T05:10:50.923Z,10.90
2022-08-19T05:11:50.973Z,9.80
2022-08-19T05:12:50.909Z,8.10
2022-08-19T05:13:50.955Z,9.10
2022-08-19T05:14:50.889Z,10.50
2022-08-19T05:15:50.914Z,11.30
2022-08-19T05:17:02.450Z,10.20
2022-08-19T05:17:50.895Z,7.90
2022-08-19T05:18:50.845Z,8.10
2022-08-19T05:19:50.871Z,9.50
2022-08-19T05:20:50.852Z,11.40
2022-08-19T05:21:50.846Z,11.90
2022-08-19T05:22:50.924Z,12.20
2022-08-19T05:23:51.086Z,12.80
2022-08-19T05:25:11.136Z,13.00
2022-08-19T05:25:50.808Z,10.20
2022-08-19T05:26:50.757Z,10.30
2022-08-19T05:27:50.817Z,12.80
2022-08-19T05:28:54.515Z,9.40
2022-08-19T05:29:50.731Z,10.00
2022-08-19T05:30:51.142Z,11.90
2022-08-19T05:31:50.717Z,11.10
2022-08-19T05:32:50.699Z,12.10
2022-08-19T05:33:50.730Z,10.30
2022-08-19T05:34:50.674Z,10.90
2022-08-19T05:35:50.662Z,12.40
2022-08-19T05:36:50.656Z,9.90
2022-08-19T05:37:54.858Z,13.40
2022-08-19T05:38:50.642Z,9.30
2022-08-19T05:39:51.698Z,9.00
2022-08-19T05:40:50.607Z,10.30
2022-08-19T05:41:50.623Z,10.10
2022-08-19T05:42:55.330Z,11.00
2022-08-19T05:43:50.623Z,10.30
2022-08-19T05:44:51.023Z,8.90
2022-08-19T05:45:50.629Z,10.70
2022-08-19T05:46:50.542Z,12.20
2022-08-19T05:47:50.552Z,10.90
2022-08-19T05:48:50.575Z,9.90
2022-08-19T05:49:50.519Z,9.60
2022-08-19T05:50:50.492Z,12.30
2022-08-19T05:51:50.536Z,10.20
2022-08-19T05:52:50.839Z,9.90
2022-08-19T05:53:50.485Z,13.20
2022-08-19T05:54:51.475Z,9.00
2022-08-19T05:55:50.452Z,10.80
2022-08-19T05:56:50.455Z,10.00
2022-08-19T05:57:50.752Z,10.10
2022-08-19T05:58:50.409Z,12.30
2022-08-19T05:59:57.595Z,14.10
2022-08-19T06:00:50.406Z,10.50
2022-08-19T06:01:50.377Z,8.90
2022-08-19T06:02:50.516Z,10.80
2022-08-19T06:03:50.409Z,11.90
2022-08-19T06:04:50.753Z,11.10
2022-08-19T06:05:52.205Z,13.00
2022-08-19T06:06:50.322Z,11.10
2022-08-19T06:07:50.474Z,10.30
2022-08-19T06:08:50.349Z,9.40
2022-08-19T06:09:59.881Z,10.00
2022-08-19T06:10:50.311Z,11.50
2022-08-19T06:11:52.911Z,16.90
2022-08-19T06:12:50.264Z,10.90
2022-08-19T06:13:50.261Z,14.80
2022-08-19T06:15:00.508Z,9.60
2022-08-19T06:15:50.284Z,10.70
2022-08-19T06:16:50.238Z,10.10
2022-08-19T06:17:50.323Z,8.60
2022-08-19T06:18:50.630Z,11.80
2022-08-19T06:19:50.191Z,12.40
2022-08-19T06:20:55.742Z,9.30
2022-08-19T06:21:50.210Z,11.50
2022-08-19T06:22:50.168Z,11.60
2022-08-19T06:23:50.185Z,12.50
2022-08-19T06:24:50.141Z,10.00
2022-08-19T06:25:50.516Z,10.50
2022-08-19T06:26:50.134Z,10.40
2022-08-19T06:28:13.891Z,8.50
2022-08-19T06:28:50.101Z,9.60
2022-08-19T06:29:50.080Z,11.90
2022-08-19T06:30:50.085Z,10.60
2022-08-19T06:31:50.071Z,12.50
2022-08-19T06:32:51.552Z,10.50
2022-08-19T06:33:50.236Z,10.90
2022-08-19T06:34:50.037Z,9.80
2022-08-19T06:35:50.031Z,8.50
2022-08-19T06:36:50.008Z,12.80
2022-08-19T06:37:49.997Z,7.90
2022-08-19T06:38:50.005Z,8.70
2022-08-19T06:39:50.507Z,9.30
2022-08-19T06:40:49.969Z,10.20
2022-08-19T06:41:52.489Z,10.30
2022-08-19T06:42:54.544Z,9.00
2022-08-19T06:43:49.970Z,9.80
2022-08-19T06:44:49.932Z,7.00
2022-08-19T06:45:49.964Z,10.00
2022-08-19T06:46:53.559Z,9.50
2022-08-19T06:47:49.911Z,9.30
2022-08-19T06:48:49.884Z,8.70
2022-08-19T06:49:49.912Z,8.70
2022-08-19T06:50:49.870Z,6.50
2022-08-19T06:51:49.885Z,8.00
2022-08-19T06:52:49.958Z,12.70
2022-08-19T06:54:55.796Z,11.20
2022-08-19T06:55:49.824Z,10.00
2022-08-19T06:56:49.816Z,14.70
2022-08-19T06:57:49.848Z,14.20
2022-08-19T06:58:49.807Z,10.00
2022-08-19T06:59:49.783Z,9.10
2022-08-19T07:00:50.060Z,9.10
2022-08-19T07:01:49.757Z,10.30
2022-08-19T07:02:54.681Z,12.00
2022-08-19T07:03:49.781Z,12.10
2022-08-19T07:04:52.743Z,12.50
2022-08-19T07:05:49.711Z,9.50
2022-08-19T07:06:55.039Z,8.30
2022-08-19T07:07:49.698Z,14.40
2022-08-19T07:08:49.736Z,6.90
2022-08-19T07:09:58.037Z,10.60
2022-08-19T07:10:49.678Z,10.20
2022-08-19T07:11:49.650Z,12.00
2022-08-19T07:12:49.730Z,8.70
2022-08-19T07:13:49.915Z,13.40
2022-08-19T07:14:49.615Z,8.90
2022-08-19T07:15:49.650Z,13.10
2022-08-19T07:16:49.633Z,10.90
2022-08-19T07:17:52.553Z,9.40
2022-08-19T07:18:49.577Z,10.90
2022-08-19T07:19:49.595Z,9.10
2022-08-19T07:20:49.580Z,9.20
2022-08-19T07:21:49.612Z,13.10
2022-08-19T07:22:49.534Z,10.40
2022-08-19T07:23:49.531Z,10.90
2022-08-19T07:48:27.905Z,7.70
2022-08-19T07:49:28.884Z,9.00
2022-08-19T07:50:28.851Z,8.60
2022-08-19T07:51:36.421Z,8.00
2022-08-19T07:52:28.850Z,7.80
2022-08-19T07:53:28.857Z,9.10
2022-08-19T07:54:29.094Z,7.10
2022-08-19T07:55:41.241Z,6.50
2022-08-19T07:56:28.795Z,8.20
2022-08-19T07:57:28.781Z,10.70
2022-08-19T07:58:28.774Z,8.10
2022-08-19T07:59:28.796Z,9.30
2022-08-19T08:00:28.744Z,16.50
2022-08-19T08:01:28.885Z,8.10
2022-08-19T08:02:28.727Z,6.70
2022-08-19T08:03:28.732Z,8.70
2022-08-19T08:04:28.728Z,6.90
2022-08-19T08:05:28.792Z,10.40
2022-08-19T08:06:29.001Z,7.50
2022-08-19T08:07:31.539Z,10.20
2022-08-19T08:08:28.705Z,9.00
2022-08-19T08:09:28.687Z,8.20
2022-08-19T08:10:28.656Z,8.20
2022-08-19T08:11:28.671Z,7.80
2022-08-19T08:12:34.690Z,9.50
2022-08-19T08:13:28.891Z,9.90
2022-08-19T08:14:29.649Z,7.60
2022-08-19T08:15:28.618Z,8.00
2022-08-19T08:16:28.593Z,8.00
2022-08-19T08:17:40.684Z,10.50
2022-08-19T08:18:30.342Z,6.60
2022-08-19T08:19:28.867Z,4.40
2022-08-19T08:20:28.554Z,7.50
2022-08-19T08:21:28.641Z,8.70
2022-08-19T08:22:28.550Z,4.80
2022-08-19T08:23:28.578Z,11.80
2022-08-19T08:24:29.070Z,7.30
2022-08-19T08:25:28.516Z,7.20
2022-08-19T08:26:28.804Z,7.30
2022-08-19T08:27:28.501Z,9.30
2022-08-19T08:28:29.778Z,6.20
2022-08-19T08:29:34.752Z,6.30
2022-08-19T08:30:28.473Z,5.60
2022-08-19T08:31:28.483Z,7.40
2022-08-19T08:32:28.447Z,5.60
2022-08-19T08:33:33.293Z,6.00
2022-08-19T08:34:28.441Z,6.10
2022-08-19T08:35:28.456Z,4.80
2022-08-19T08:36:28.393Z,5.20
2022-08-19T08:37:28.410Z,5.30
2022-08-19T08:38:28.514Z,6.20
2022-08-19T08:39:28.378Z,7.40
2022-08-19T08:40:28.663Z,4.10
2022-08-19T08:41:28.391Z,7.40
2022-08-19T08:42:28.359Z,4.80
2022-08-19T08:43:30.693Z,8.80
2022-08-19T08:44:28.336Z,7.90
2022-08-19T08:45:28.324Z,7.80
2022-08-19T08:46:31.041Z,5.50
2022-08-19T08:47:28.603Z,4.60
2022-08-19T08:48:28.296Z,5.30
2022-08-19T08:49:28.290Z,4.40
2022-08-19T08:50:28.272Z,6.20
2022-08-19T08:51:30.888Z,5.90
2022-08-19T08:52:32.036Z,7.80
2022-08-19T08:53:31.140Z,4.40
2022-08-19T08:54:28.265Z,9.30
2022-08-19T08:55:28.248Z,3.70
2022-08-19T08:56:28.256Z,6.90
2022-08-19T08:57:28.203Z,8.20
2022-08-19T08:58:28.214Z,6.00
2022-08-19T08:59:28.211Z,4.10
2022-08-19T09:00:28.463Z,4.30
2022-08-19T09:01:30.195Z,4.70
2022-08-19T09:02:28.182Z,7.90
2022-08-19T09:03:28.139Z,4.80
2022-08-19T09:04:28.197Z,4.50
2022-08-19T09:05:28.178Z,6.70
2022-08-19T09:06:28.154Z,3.40
2022-08-19T09:07:36.094Z,4.50
2022-08-19T09:08:28.145Z,6.30
2022-08-19T09:09:29.012Z,4.10
2022-08-19T09:10:28.082Z,3.70
2022-08-19T09:11:42.904Z,4.20
2022-08-19T09:12:28.075Z,5.90
2022-08-19T09:13:28.040Z,5.20
2022-08-19T09:14:49.227Z,4.80
2022-08-19T09:15:33.341Z,3.40
2022-08-19T09:16:28.268Z,5.30
2022-08-19T09:17:28.063Z,6.80
2022-08-19T09:18:29.825Z,5.00
2022-08-19T09:19:27.995Z,4.00
2022-08-19T09:20:27.976Z,4.00
2022-08-19T09:21:33.170Z,5.50
2022-08-19T09:22:27.966Z,3.20
2022-08-19T09:23:27.996Z,3.10
2022-08-19T09:24:28.118Z,3.60
2022-08-19T09:25:29.698Z,4.10
2022-08-19T09:26:35.270Z,3.90
2022-08-19T09:27:35.450Z,5.40
2022-08-19T09:28:27.913Z,5.00
2022-08-19T09:29:27.935Z,4.80
2022-08-19T09:30:27.889Z,4.70
2022-08-19T09:31:27.924Z,4.40
2022-08-19T09:32:27.872Z,5.50
2022-08-19T09:33:27.862Z,4.10
2022-08-19T09:34:28.133Z,5.10
2022-08-19T09:35:28.476Z,3.40
2022-08-19T09:36:31.136Z,3.80
2022-08-19T09:37:27.847Z,3.10
2022-08-19T09:38:27.817Z,5.90
2022-08-19T09:39:36.084Z,4.70
2022-08-19T09:40:27.937Z,5.50
2022-08-19T09:41:28.693Z,3.70
2022-08-19T09:42:29.929Z,5.60
2022-08-19T09:43:33.191Z,3.50
2022-08-19T09:44:27.759Z,2.60
2022-08-19T09:45:27.731Z,2.90
2022-08-19T09:46:28.033Z,3.10
2022-08-19T09:47:27.765Z,3.10
2022-08-19T09:48:27.707Z,3.20
2022-08-19T09:49:27.684Z,2.50
2022-08-19T09:50:27.719Z,3.20
2022-08-19T09:51:27.682Z,3.60
2022-08-19T09:52:32.515Z,3.90
2022-08-19T09:53:27.687Z,5.50
2022-08-19T09:54:27.662Z,3.40
2022-08-19T09:55:31.284Z,3.30
2022-08-19T09:56:27.634Z,4.60
2022-08-19T09:57:27.607Z,2.80
2022-08-19T09:58:27.901Z,5.00
2022-08-19T09:59:27.651Z,3.00
2022-08-19T10:00:27.593Z,3.40
2022-08-19T10:01:27.621Z,6.00
2022-08-19T10:02:28.941Z,4.90
2022-08-19T10:03:30.043Z,3.70
2022-08-19T10:04:27.572Z,5.00
2022-08-19T10:05:27.562Z,2.60
2022-08-19T10:06:46.146Z,1.90
2022-08-19T10:07:28.866Z,3.40
2022-08-19T10:08:27.516Z,4.50
2022-08-19T10:09:34.707Z,3.30
2022-08-19T10:10:27.512Z,4.20
2022-08-19T10:11:39.487Z,3.40
2022-08-19T10:12:27.480Z,4.90
2022-08-19T10:13:27.476Z,3.30
2022-08-19T10:14:27.474Z,3.10
2022-08-19T10:15:29.142Z,2.90
2022-08-19T10:16:30.229Z,2.50
2022-08-19T10:17:31.653Z,5.00
2022-08-19T10:18:27.432Z,3.20
2022-08-19T10:19:27.407Z,3.70
2022-08-19T10:20:27.400Z,3.30
2022-08-19T10:21:27.397Z,3.60
2022-08-19T10:22:27.380Z,3.50
2022-08-19T10:23:27.425Z,3.70
2022-08-19T10:24:27.358Z,4.40
2022-08-19T10:25:27.345Z,5.60
2022-08-19T10:26:27.340Z,3.70
2022-08-19T10:27:27.314Z,3.90
2022-08-19T10:28:27.304Z,5.00
2022-08-19T10:29:31.796Z,3.60
2022-08-19T10:30:27.301Z,2.20
2022-08-19T10:32:00.371Z,4.50
2022-08-19T10:32:34.223Z,3.60
2022-08-19T10:33:40.803Z,3.60
2022-08-19T10:34:28.409Z,2.30
2022-08-19T10:35:27.360Z,3.70
2022-08-19T10:36:27.258Z,3.50
2022-08-19T10:37:31.234Z,3.20
2022-08-19T10:38:29.299Z,3.70
2022-08-19T10:39:30.588Z,3.30
2022-08-19T10:40:27.302Z,2.70
2022-08-19T10:41:27.524Z,4.40
2022-08-19T10:42:27.168Z,2.40
2022-08-19T10:43:27.172Z,7.80
2022-08-19T10:44:31.981Z,2.50
2022-08-19T10:45:28.270Z,3.70
2022-08-19T10:46:27.192Z,3.80
2022-08-19T10:47:31.708Z,3.40
2022-08-19T10:48:27.140Z,3.00
2022-08-19T10:49:28.138Z,3.50
2022-08-19T10:50:28.831Z,3.10
2022-08-19T10:51:27.089Z,2.90
2022-08-19T10:52:32.473Z,3.30
2022-08-19T10:53:27.128Z,3.80
2022-08-19T10:54:33.335Z,5.70
2022-08-19T10:55:29.824Z,3.00
2022-08-19T10:56:27.061Z,3.60
2022-08-19T10:57:36.873Z,2.70
2022-08-19T10:58:27.030Z,4.10
2022-08-19T10:59:27.059Z,3.10
2022-08-19T11:00:27.016Z,2.40
2022-08-19T11:01:27.029Z,6.50
2022-08-19T11:02:26.977Z,2.20
2022-08-19T11:03:26.960Z,4.30
2022-08-19T11:04:29.494Z,3.90
2022-08-19T11:05:26.978Z,3.00
2022-08-19T11:06:26.957Z,3.90
2022-08-19T11:07:27.224Z,3.10
2022-08-19T11:08:26.927Z,2.20
2022-08-19T11:09:33.705Z,3.90
2022-08-19T11:10:26.945Z,3.90
2022-08-19T11:11:26.919Z,3.30
2022-08-19T11:12:26.886Z,4.30
2022-08-19T11:13:26.880Z,3.70
2022-08-19T11:14:27.254Z,3.60
2022-08-19T11:15:26.847Z,3.30
2022-08-19T11:16:26.870Z,2.50
2022-08-19T11:17:26.862Z,2.00
2022-08-19T11:18:26.827Z,3.00
2022-08-19T11:19:26.834Z,2.90
2022-08-19T11:20:26.801Z,2.60
2022-08-19T11:21:27.102Z,5.50
2022-08-19T11:22:35.345Z,2.90
2022-08-19T11:23:26.811Z,3.00
2022-08-19T11:24:26.777Z,3.10
2022-08-19T11:25:26.756Z,3.60
2022-08-19T11:26:26.761Z,4.60
2022-08-19T11:27:26.747Z,3.70
2022-08-19T11:28:27.164Z,3.60
2022-08-19T11:29:26.829Z,5.30
2022-08-19T11:30:26.743Z,3.00
2022-08-19T11:31:29.268Z,3.20
2022-08-19T11:32:26.699Z,4.50
2022-08-19T11:33:26.673Z,3.80
2022-08-19T11:34:26.727Z,2.80
2022-08-19T11:35:27.041Z,1.80
2022-08-19T11:36:26.680Z,3.30
2022-08-19T11:37:26.631Z,2.60
2022-08-19T11:38:26.642Z,3.30
2022-08-19T11:39:26.640Z,2.70
2022-08-19T11:40:26.622Z,4.70
2022-08-19T11:41:26.628Z,2.60
2022-08-19T11:42:27.012Z,2.70
2022-08-19T11:43:26.611Z,3.00
2022-08-19T11:44:26.575Z,2.30
2022-08-19T11:45:26.553Z,2.10
2022-08-19T11:46:26.561Z,4.60
2022-08-19T11:47:26.558Z,5.40
2022-08-19T11:48:26.557Z,3.00
2022-08-19T11:49:26.866Z,6.20
2022-08-19T11:50:26.525Z,2.60
2022-08-19T11:51:26.495Z,2.70
2022-08-19T11:52:26.499Z,2.90
2022-08-19T11:53:26.529Z,3.80
2022-08-19T11:54:26.476Z,3.70
2022-08-19T11:55:26.454Z,3.60
2022-08-19T11:56:26.449Z,4.00
2022-08-19T11:57:26.448Z,5.40
2022-08-19T11:58:26.434Z,4.70
2022-08-19T11:59:26.519Z,3.30
2022-08-19T12:00:26.424Z,5.70
2022-08-19T12:01:26.936Z,3.20
2022-08-19T12:02:26.404Z,3.70
2022-08-19T12:03:26.495Z,3.70
2022-08-19T12:04:26.406Z,3.20
2022-08-19T12:05:26.413Z,3.20
2022-08-19T12:06:26.361Z,3.10
2022-08-19T12:07:26.342Z,4.00
2022-08-19T12:08:26.333Z,7.20
2022-08-19T12:09:26.340Z,4.10
2022-08-19T12:10:26.695Z,5.50
2022-08-19T12:11:26.336Z,4.90
2022-08-19T12:12:26.340Z,5.40
2022-08-19T12:13:26.614Z,4.90
2022-08-19T12:14:26.274Z,4.90
2022-08-19T12:15:26.273Z,6.50
2022-08-19T12:16:26.255Z,4.50
2022-08-19T12:17:26.260Z,6.80
2022-08-19T12:18:26.235Z,9.00
2022-08-19T12:19:26.212Z,7.40
2022-08-19T12:20:26.675Z,5.60
2022-08-19T12:21:26.194Z,7.60
2022-08-19T12:22:26.228Z,9.20
2022-08-19T12:23:26.204Z,8.10
2022-08-19T12:24:26.168Z,7.20
2022-08-19T12:25:26.191Z,6.70
2022-08-19T12:26:26.154Z,7.30
2022-08-19T12:27:32.202Z,6.20
2022-08-19T12:28:26.135Z,6.40
2022-08-19T12:29:26.162Z,7.00
2022-08-19T12:30:26.109Z,6.30
2022-08-19T12:31:26.098Z,4.90
2022-08-19T12:32:26.126Z,5.80
2022-08-19T12:33:26.105Z,5.40
2022-08-19T12:34:26.564Z,7.70
2022-08-19T12:35:26.143Z,6.20
2022-08-19T12:36:26.063Z,5.10
2022-08-19T12:37:26.033Z,4.60
2022-08-19T12:38:26.047Z,5.70
2022-08-19T12:39:26.038Z,6.70
2022-08-19T12:40:26.380Z,4.30
2022-08-19T12:41:26.445Z,6.70
2022-08-19T12:42:25.997Z,5.20
2022-08-19T12:43:25.959Z,4.30
2022-08-19T12:44:29.333Z,5.60
2022-08-19T12:45:25.989Z,5.70
2022-08-19T12:46:26.107Z,5.20
2022-08-19T12:47:25.974Z,4.20
2022-08-19T12:48:33.481Z,5.30
2022-08-19T12:49:52.796Z,5.90
2022-08-19T12:50:25.935Z,7.40
2022-08-19T12:51:25.883Z,7.20
2022-08-19T12:52:25.910Z,4.30
2022-08-19T12:53:25.894Z,5.20
2022-08-19T12:54:25.860Z,4.90
2022-08-19T12:55:26.288Z,9.90
2022-08-19T12:56:25.828Z,4.30
2022-08-19T12:57:33.269Z,6.30
2022-08-19T12:58:27.458Z,3.70
2022-08-19T12:59:25.854Z,5.40
2022-08-19T13:00:25.792Z,4.40
2022-08-19T13:01:25.827Z,5.00
2022-08-19T13:02:26.127Z,3.80
2022-08-19T13:03:25.770Z,4.40
2022-08-19T13:04:25.810Z,4.60
2022-08-19T13:05:25.790Z,3.90
2022-08-19T13:06:25.765Z,3.70
2022-08-19T13:07:25.720Z,3.70
2022-08-19T13:08:25.726Z,3.70
2022-08-19T13:09:26.173Z,2.60
2022-08-19T13:10:25.693Z,3.60
2022-08-19T13:11:25.737Z,2.40
2022-08-19T13:12:25.709Z,4.30
2022-08-19T13:13:25.925Z,4.50
2022-08-19T13:14:25.659Z,4.70
2022-08-19T13:15:25.687Z,3.90
2022-08-19T13:16:26.071Z,6.10
2022-08-19T13:17:25.671Z,4.20
2022-08-19T13:18:25.628Z,7.60
2022-08-19T13:19:25.624Z,3.90
2022-08-19T13:20:25.609Z,6.70
2022-08-19T13:21:25.596Z,3.70
2022-08-19T13:22:25.580Z,4.10
2022-08-19T13:23:25.962Z,4.10
2022-08-19T13:24:26.352Z,3.30
2022-08-19T13:25:25.572Z,4.00
2022-08-19T13:26:25.552Z,4.40
2022-08-19T13:27:25.528Z,4.10
2022-08-19T13:28:29.241Z,3.70
2022-08-19T13:29:25.541Z,3.70
2022-08-19T13:30:25.786Z,5.20
2022-08-19T13:31:25.533Z,3.20
2022-08-19T13:32:25.483Z,3.80
2022-08-19T13:33:25.477Z,4.80
2022-08-19T13:34:25.490Z,4.60
2022-08-19T13:35:25.515Z,3.70
2022-08-19T13:36:25.449Z,7.20